crear test y ex├ímenes   Fast quiz maker   creare esami e test online   Criar teste e exames online
Criar testes e exames online
 

Criar Teste Ver outros Testes
NO TAF SBGL 041200 051200 10007KT 8000 FEW BECMG 1416 19010KT BECMG 2022 TS SCT020 FEW 030CB BECMG 0810 03005KT TX32/17Z TN25/08Z, SEGUNDO A MENSAGEM UMA ACFT QUE ESTIMA POUSAR ÀS 1100 UTC ENCONTRARÁ:

. 19010KT 8000 TS SCT020 FEW030CB
. 03005KT 8000 TS SCT020 FEW030CB
. 10007KT 8000 FEW030
. 1005KT NSW FEW020
EM UM DADO INSTANTE A TEMPERATURA DO AR, NO FL085 É DE MAIS 3 GRAUS CELSIUS, PORTANTO A CONDIÇÃO DE TEMPERATURA PADRÃO PARA O REFERIDO NÍVEL, SERÁ ISA:

. MAIS 01 º C
. MAIS 17 º C
. MAIS 05º C
. MAIS 02º C
UM DETERMINADO VOLUME DE AR É CONSIDERADO SATURADO QUANDO CONTÉM VAPOR DE ÁGUA SUFICIENTE PARA OCUPAR PARTE DO VOLUME, EQUIVALENTE A:

. 50%
. 10%
. 4%
. 100%
NO METAR SBBU 141700Z 12008KT 2500 HZ SCT020 BKN100 29/20 Q1017, TEM-SE:

. LITOMETEORO
. ALTITUDE PRESSÃO DE 1017 HPA
. NÉVOA ÚMIDA
. NUVEM BAIXA A 200 METROS
DURANTE O DI, OS VENTOS QUE FLUEM ASCENDENDO ÀS ENCOSTAS DAS MONTANHAS SÃO DENOMINADOS:

. ANABÁTICO
. DO VALE
. FOHEN
. CATABÁTICO
NO METAR SBFL 031000Z 25011KT 2100 +RA FEW010 BKN020 OVC080 22/22 Q1013, TEM-SE:

. CÉU ENCOBERTO POR NUVENS DO ESTÁGIO ALTO
. QNH DE 1013,2 HPA
. VISIBILIDADE DE 1000 PÉS
. CHUVA MODERADA
A PASSAGEM DA ÁGUA NO ESTADO SÓLIDO PARA O ESTADO LIQUIDO, DENOMINA-SE:

. SUBLIMAÇÃO
. CONDENSAÇÃO
. CONGELAMENTO
. FUSÃO
DE ACORDO COM OS PARÂMETRO ESTABELECIDOS PELA ATMOSFERA PADRÃO, PARA CADA 90 PÉS DE ALTITUDE A PRESSÃO DECRESCE EM MÉDIA:

. 4 HPA
. 3 HPA
. 2 HPA
. 1 HPA
A TEMPERATURA DENOMINADA "ZERO ABSOLUTO", EQUIVALE A:

. - 273º C
. 0º C
. 0º F
. -359º F
NA COMPOSIÇÃO DO AR SATURADO TEMOS:

. 4% DE VAPOR DE ÁGUA DO VOLUME
. 78% DE NITROGÊNIO
. 0% DE VAPOR DE ÁGUA
. 21% DE OXIGÊNIO
DAS NUVENS RELACIONADAS ABAIXO, INDIQUE AQUELA CLASSIFICADA COMO DE DESENVOLVIMENTO VERTICAL ACENTUADO, DE ESTRUTURA MISTA E QUE PRECIPITA ABUNDANTEMENTE:

. CU
. NS
. CB
. AC
EM QUALQUER TIPO DE FRENTE A RAMPA FRONTAL SEMPRE SE INCLINA PARA O LADO DO AR:

. MAIS FRIO
. MENOS DENSO
. MENOS INSTÁVEL
. MAIS QUENTE
AS NUVENS FORMADAS EXCLUSIVAMENTE POR CRISTAIS DE GELO SÃO:

. BAIXAS
. DE DESENVOLVIMENTO VERTICAL
. MÉDIAS
. ALTAS
A TROVOADA NA FASE DE DISSIPAÇÃO APRESENTA COMO CARACTERÍSTICA:

. RAJADAS DE VENTOS À SUPERFICIE
. SOMENTE CORRENTE DESCENDENTE
. SOMENTE RELÂMPAGOS
. TURBULÊNCIA MÁXIMA
UMA ACFT VOANDO NO HEMISFÉRIO NORTE COM VENTO DE PROA, TERÁ AS MENORES PRESSÕES:

. À DIREITA
. À ESQUERDA
. NA CAUDA
. NA PROA
NO METAR SBJV 030900Z 00000KT 5000 -DZ BR FEW004 BKN 012 BKN080 22/21 Q1013 RERA, TEM-SE:

. NÉVOA-SECA
. CHUVA LEVE
. VENTO CALMO
. VISIBILIDADE 5000 PÉS
NO TAF SBKP 151800 161800 15009KT 8000 SCT020 BKN200 TEMPO 2024 5000 +TSRA SCT020 FEW030CB BKN200 BECMG 12005KT 2000 BR OVC010 TX32/19Z TN14/10Z, FOI PREVISTO:

. VENTO DE 15009KT ENTRE 18 E 06Z
. VISIBILIDADE DE 5000 M APÓS ÀS 14 UTC
. CÉU ENCOBERTO ENTRE 06 E 08Z
. TEMPERATURA MÁXIMA DE 32º C PARA ÀS 19Z DO DIA 16
NO METAR SBSP 062100Z 30004KT 9999 BKN025 FEW030TCU SCT 080 28/15 Q1011, TEM-SE:

. STRATUS A 800 PÉS DE ALTURA
. CÉU NUBLADO A 750 METROS
. NUVENS DO ESTÁGIO MÉDIO A 2500 FT DE ALTURA
. GRANDES CUMULOS ESPARSOS
A RELAÇÃO ENTRE A MASSA DE VAPOR DE ÁGUA CONTIDA NO AR E UM DETERMINADO VOLUME, GERALMENTE EXPRESSA EM GRAMAS DE VAPOR DE ÁGUA POR METRO CÚBICO DE AR, DENOMINA-SE:

. PONTO DE ORVALHO
. RAZÃO DE MISTURA
. UMIDADE ABSOLUTA
. UMIDADE RELATIVA
1 - O NEVOEIRO QUE SE FORMA ASSOCIADO A UMA FRENTE FRIA LENTA, DENOMINA-SE:

. PRÉ-FRONTAL
. ADVECÇÃO
. PÓS-FRONTAL
. RADIAÇÃO


Crie o seu propio teste grátis.
Criarteste.com não se responsabiliza pelo conteúdo publicado pelos usuários.
Usamos as cookies para personalizar os anúncios e analizamos o tráfego web para melhorar nosso conteúdo. Nós compartilhamos essas informações com Google Analytics, Adsense e Google+. O nosso site e Google usam essas informações para fornecer serviços melhores.Ok   Uso das cookies Google